Time;durP1;ratioP1;P1;durP2;ratioP2;P2;SDS_P1;SDS_P2;PMS_P1;PMS_P2;Temp;Humidity;BMP_temperature;BMP_pressure;BME280_temperature;BME280_humidity;BME280_pressure;Samples;Min_cycle;Max_cycle;Signal;HPM_P1;HPM_P2
2021/01/21 00:00:42;;;;;;;1.30;1.20;;;10.10;81.40;;;;;;5067665;28;20044;-55
2021/01/21 00:03:07;;;;;;;1.73;1.30;;;10.20;81.50;;;;;;5087760;28;20056;-55
2021/01/21 00:05:33;;;;;;;1.23;1.10;;;10.20;81.50;;;;;;5087366;28;20044;-51
2021/01/21 00:07:59;;;;;;;1.33;1.23;;;10.20;81.50;;;;;;5085051;28;20047;-51
2021/01/21 00:10:24;;;;;;;1.30;1.20;;;10.20;81.50;;;;;;5087813;28;20045;-56
2021/01/21 00:12:51;;;;;;;1.92;1.10;;;10.20;81.50;;;;;;5085106;28;20046;-55
2021/01/21 00:15:17;;;;;;;1.60;1.17;;;10.20;81.50;;;;;;5086316;28;20048;-54
2021/01/21 00:17:43;;;;;;;1.38;1.20;;;10.20;81.50;;;;;;5088265;28;20506;-51
2021/01/21 00:20:12;;;;;;;1.35;1.25;;;10.20;81.50;;;;;;5087183;28;20040;-52
2021/01/21 00:22:38;;;;;;;1.23;1.10;;;10.20;81.50;;;;;;5088438;28;20036;-52
2021/01/21 00:25:04;;;;;;;2.25;1.27;;;10.10;81.50;;;;;;5088242;28;20048;-54
2021/01/21 00:27:31;;;;;;;1.48;1.05;;;10.20;81.50;;;;;;5084680;28;20040;-54
2021/01/21 00:29:56;;;;;;;1.20;1.10;;;10.20;81.50;;;;;;5086708;28;20408;-56
2021/01/21 00:32:22;;;;;;;1.45;1.15;;;10.20;81.50;;;;;;5085285;28;20101;-57
2021/01/21 00:34:48;;;;;;;1.20;1.10;;;10.20;81.50;;;;;;5084498;28;20052;-56
2021/01/21 00:37:13;;;;;;;1.23;1.10;;;10.20;81.50;;;;;;5086601;28;20135;-55
2021/01/21 00:39:39;;;;;;;1.52;1.25;;;10.20;81.50;;;;;;5085839;28;20052;-56
2021/01/21 00:42:05;;;;;;;1.02;0.90;;;10.20;81.50;;;;;;5086819;28;20040;-55
2021/01/21 00:44:31;;;;;;;1.20;1.10;;;10.20;81.50;;;;;;5086948;28;20048;-53
2021/01/21 00:46:56;;;;;;;1.50;1.30;;;10.20;81.50;;;;;;5086176;28;20064;-54
2021/01/21 00:49:22;;;;;;;1.17;1.08;;;10.20;81.50;;;;;;5084947;28;20044;-57
2021/01/21 00:51:47;;;;;;;1.65;1.30;;;10.20;81.50;;;;;;5085151;28;20117;-58
2021/01/21 00:54:13;;;;;;;3.15;1.80;;;10.20;81.50;;;;;;5083849;28;20125;-54
2021/01/21 00:56:39;;;;;;;1.50;1.10;;;10.20;81.50;;;;;;5085936;28;20121;-57
2021/01/21 00:59:04;;;;;;;1.25;1.10;;;10.20;81.50;;;;;;5087371;28;20052;-55
2021/01/21 01:01:30;;;;;;;1.23;1.13;;;10.20;81.50;;;;;;5086378;28;20040;-56
2021/01/21 01:03:56;;;;;;;1.58;1.30;;;10.20;81.50;;;;;;5083967;28;20135;-58
2021/01/21 01:06:22;;;;;;;1.45;1.23;;;10.20;81.50;;;;;;5085287;28;20047;-57
2021/01/21 01:08:47;;;;;;;2.17;1.13;;;10.20;81.50;;;;;;5087505;28;20056;-57
2021/01/21 01:11:13;;;;;;;1.73;1.23;;;10.20;81.40;;;;;;5083844;28;20041;-56
2021/01/21 01:13:39;;;;;;;1.42;1.17;;;10.20;81.50;;;;;;5084963;28;20086;-57
2021/01/21 01:16:05;;;;;;;2.65;1.60;;;10.20;81.50;;;;;;5084496;28;20040;-57
2021/01/21 01:18:31;;;;;;;1.92;1.20;;;10.20;81.40;;;;;;5084840;28;20127;-57
2021/01/21 01:20:57;;;;;;;1.33;1.20;;;10.20;81.40;;;;;;5085715;28;20068;-52
2021/01/21 01:23:22;;;;;;;1.58;1.20;;;10.20;81.40;;;;;;5085342;28;20163;-55
2021/01/21 01:25:48;;;;;;;1.42;1.30;;;10.10;81.40;;;;;;5084109;28;20068;-56
2021/01/21 01:28:14;;;;;;;1.45;1.10;;;10.20;81.40;;;;;;5084828;28;20059;-53
2021/01/21 01:30:40;;;;;;;1.20;1.10;;;10.20;81.40;;;;;;5083997;28;20036;-52
2021/01/21 01:33:06;;;;;;;1.58;1.23;;;10.20;81.40;;;;;;5084630;28;20040;-54
2021/01/21 01:35:31;;;;;;;2.63;1.15;;;10.20;81.40;;;;;;5085543;28;20069;-52
2021/01/21 01:37:57;;;;;;;1.15;1.05;;;10.20;81.40;;;;;;5083152;28;20044;-54
2021/01/21 01:40:23;;;;;;;1.85;1.10;;;10.20;81.40;;;;;;5065855;28;20079;-57
2021/01/21 01:42:48;;;;;;;1.30;1.10;;;10.20;81.40;;;;;;5084862;28;20072;-54
2021/01/21 01:45:14;;;;;;;1.23;1.00;;;10.20;81.50;;;;;;5083975;28;20115;-51
2021/01/21 01:47:44;;;;;;;1.10;1.00;;;10.20;81.40;;;;;;5083352;28;20090;-55
2021/01/21 01:50:11;;;;;;;1.10;1.00;;;10.20;81.40;;;;;;5083494;28;20044;-52
2021/01/21 01:52:41;;;;;;;1.70;1.05;;;10.20;81.40;;;;;;5082793;28;20508;-56
2021/01/21 01:55:13;;;;;;;1.00;0.95;;;10.20;81.40;;;;;;5085959;28;20439;-54
2021/01/21 01:57:40;;;;;;;1.10;0.90;;;10.20;81.40;;;;;;5085661;28;20093;-57
2021/01/21 02:00:07;;;;;;;1.00;1.00;;;10.20;81.40;;;;;;5084027;28;20120;-53
2021/01/21 02:02:33;;;;;;;1.38;1.27;;;10.20;82.10;;;;;;5083136;28;20052;-52
2021/01/21 02:05:00;;;;;;;1.35;1.10;;;10.20;81.40;;;;;;5085224;28;20118;-53
2021/01/21 02:07:26;;;;;;;1.40;1.00;;;10.20;81.40;;;;;;5085377;28;20128;-57
2021/01/21 02:09:53;;;;;;;2.53;0.98;;;10.20;81.40;;;;;;5082560;28;20124;-54
2021/01/21 02:12:42;;;;;;;1.50;1.05;;;10.20;81.40;;;;;;5084748;28;20181;-55
2021/01/21 02:15:34;;;;;;;1.50;1.10;;;10.20;81.40;;;;;;5085659;28;20060;-55
2021/01/21 02:18:20;;;;;;;1.27;1.15;;;10.20;81.40;;;;;;5084545;28;20488;-56
2021/01/21 02:21:23;;;;;;;1.33;1.17;;;10.20;81.40;;;;;;5086717;28;20064;-51
2021/01/21 02:24:26;;;;;;;1.25;1.00;;;10.20;81.40;;;;;;5085584;28;20041;-52
2021/01/21 02:26:57;;;;;;;1.58;1.20;;;10.20;81.40;;;;;;5085595;28;20075;-54
2021/01/21 02:29:26;;;;;;;1.52;1.15;;;10.30;81.50;;;;;;5084431;28;20035;-50
2021/01/21 02:32:07;;;;;;;1.48;1.10;;;10.20;81.40;;;;;;5083274;28;20049;-56
2021/01/21 02:34:51;;;;;;;1.15;1.02;;;10.20;81.40;;;;;;5081890;28;20072;-57
2021/01/21 02:37:24;;;;;;;1.40;1.10;;;10.30;82.10;;;;;;5086478;28;20036;-59
2021/01/21 02:39:53;;;;;;;1.15;0.80;;;10.30;81.50;;;;;;5082600;28;20051;-54
2021/01/21 02:42:19;;;;;;;1.35;0.93;;;10.20;81.40;;;;;;5083766;28;20067;-51
2021/01/21 02:44:47;;;;;;;0.95;0.90;;;10.20;81.40;;;;;;5083322;28;20121;-55
2021/01/21 02:47:13;;;;;;;1.67;1.00;;;10.20;81.40;;;;;;5085625;28;20052;-54
2021/01/21 02:49:40;;;;;;;2.53;1.20;;;10.20;81.40;;;;;;5083846;28;20051;-55
2021/01/21 02:52:23;;;;;;;1.23;1.05;;;10.20;81.40;;;;;;5082583;28;20185;-58
2021/01/21 02:54:49;;;;;;;1.42;1.13;;;10.20;81.40;;;;;;5086114;28;20054;-57
2021/01/21 02:57:22;;;;;;;2.28;0.95;;;10.20;81.40;;;;;;5083364;28;20043;-56
2021/01/21 02:59:49;;;;;;;1.17;0.85;;;10.20;81.40;;;;;;5086612;28;20488;-56
2021/01/21 03:02:19;;;;;;;1.17;1.08;;;10.30;81.50;;;;;;5084856;28;20116;-56
2021/01/21 03:04:46;;;;;;;1.17;1.05;;;10.20;81.40;;;;;;5083421;28;20041;-55
2021/01/21 03:07:15;;;;;;;1.52;1.17;;;10.20;81.40;;;;;;5081725;28;20067;-53
2021/01/21 03:09:44;;;;;;;1.00;1.00;;;10.30;81.50;;;;;;5083205;28;20047;-56
2021/01/21 03:12:27;;;;;;;0.88;0.88;;;10.20;81.40;;;;;;5083505;28;20075;-57
2021/01/21 03:14:56;;;;;;;1.30;1.00;;;10.30;81.50;;;;;;5083350;28;20405;-57
2021/01/21 03:17:26;;;;;;;1.08;0.90;;;10.30;81.50;;;;;;5083172;28;20071;-55
2021/01/21 03:19:52;;;;;;;1.00;0.90;;;10.20;81.40;;;;;;5083217;28;20436;-57
2021/01/21 03:22:19;;;;;;;1.08;0.93;;;10.20;81.40;;;;;;5081276;28;20043;-56
2021/01/21 03:24:45;;;;;;;3.05;1.17;;;10.30;81.50;;;;;;5082685;28;20113;-55
2021/01/21 03:27:11;;;;;;;1.10;0.90;;;10.30;81.50;;;;;;5084524;28;20097;-55
2021/01/21 03:29:38;;;;;;;0.95;0.90;;;10.20;82.00;;;;;;5083054;28;20044;-54
2021/01/21 03:32:04;;;;;;;2.15;1.25;;;10.30;81.40;;;;;;5082323;28;20036;-56
2021/01/21 03:34:30;;;;;;;0.80;0.80;;;10.30;81.50;;;;;;5082882;28;20052;-54
2021/01/21 03:36:56;;;;;;;1.00;1.00;;;10.30;81.40;;;;;;5080313;28;20119;-57
2021/01/21 03:39:22;;;;;;;1.33;1.00;;;10.30;81.50;;;;;;5083015;28;20051;-57
2021/01/21 03:41:51;;;;;;;1.10;0.98;;;10.30;81.50;;;;;;5083189;28;20113;-57
2021/01/21 03:44:17;;;;;;;0.95;0.80;;;10.30;81.50;;;;;;5081207;28;20102;-54
2021/01/21 03:46:43;;;;;;;1.02;0.90;;;10.20;81.40;;;;;;5083049;28;20051;-56
2021/01/21 03:49:09;;;;;;;0.90;0.90;;;10.30;81.40;;;;;;5082521;28;20049;-57
2021/01/21 03:51:35;;;;;;;0.80;0.80;;;10.30;81.50;;;;;;5082502;28;20097;-57
2021/01/21 03:54:01;;;;;;;1.30;1.15;;;10.30;81.40;;;;;;5081732;28;20048;-54
2021/01/21 03:56:26;;;;;;;1.13;0.95;;;10.30;81.50;;;;;;5082141;28;20127;-55
2021/01/21 03:58:52;;;;;;;1.90;1.10;;;10.30;81.50;;;;;;5081596;28;20052;-56
2021/01/21 04:01:18;;;;;;;1.13;0.90;;;10.30;81.40;;;;;;5083936;28;20449;-54
2021/01/21 04:03:43;;;;;;;1.20;0.73;;;10.30;81.50;;;;;;5081989;28;20047;-55
2021/01/21 04:06:10;;;;;;;1.60;1.40;;;10.30;81.40;;;;;;5082842;28;20044;-56
2021/01/21 04:08:36;;;;;;;1.23;1.13;;;10.30;81.40;;;;;;5083184;28;20044;-53
2021/01/21 04:11:02;;;;;;;1.67;0.95;;;10.30;81.40;;;;;;5080686;28;20123;-55
2021/01/21 04:13:27;;;;;;;0.93;0.93;;;10.30;81.40;;;;;;5082003;28;20092;-52
2021/01/21 04:15:53;;;;;;;1.17;1.00;;;10.30;81.50;;;;;;5083020;28;20129;-54
2021/01/21 04:18:19;;;;;;;1.02;0.90;;;10.30;81.40;;;;;;5080834;28;20067;-57
2021/01/21 04:20:44;;;;;;;1.20;1.00;;;10.30;81.40;;;;;;5083994;28;20040;-56
2021/01/21 04:23:10;;;;;;;1.63;1.10;;;10.30;81.40;;;;;;5081540;28;20064;-56
2021/01/21 04:25:36;;;;;;;1.00;0.90;;;10.30;81.40;;;;;;5082925;28;20052;-55
2021/01/21 04:28:03;;;;;;;1.50;1.00;;;10.30;81.40;;;;;;5084680;28;20032;-56
2021/01/21 04:30:30;;;;;;;0.90;0.90;;;10.30;81.40;;;;;;5087256;28;20044;-55
2021/01/21 04:32:56;;;;;;;1.35;0.95;;;10.30;81.40;;;;;;5086195;28;20476;-53
2021/01/21 04:35:21;;;;;;;1.17;0.85;;;10.30;81.40;;;;;;5088423;28;20047;-56
2021/01/21 04:37:47;;;;;;;1.83;0.93;;;10.30;81.40;;;;;;5085619;28;20105;-57
2021/01/21 04:40:14;;;;;;;0.77;0.77;;;10.30;81.40;;;;;;5084725;28;20127;-56
2021/01/21 04:42:40;;;;;;;1.45;1.10;;;10.30;81.40;;;;;;5086576;28;20104;-53
2021/01/21 04:45:07;;;;;;;0.90;0.90;;;10.30;81.40;;;;;;5086045;28;20048;-55
2021/01/21 04:47:33;;;;;;;1.23;1.13;;;10.30;81.50;;;;;;5083913;28;20049;-54
2021/01/21 04:50:00;;;;;;;1.30;0.90;;;10.30;81.50;;;;;;5086198;28;20054;-56
2021/01/21 04:52:28;;;;;;;1.55;0.93;;;10.30;81.40;;;;;;5083348;28;20424;-56
2021/01/21 04:55:18;;;;;;;1.33;0.80;;;10.40;81.50;;;;;;5086085;28;20086;-51
2021/01/21 04:57:52;;;;;;;1.13;1.00;;;10.30;81.40;;;;;;5085678;28;20075;-57
2021/01/21 05:00:18;;;;;;;0.80;0.80;;;10.30;82.10;;;;;;5086618;28;20062;-55
2021/01/21 05:02:45;;;;;;;1.50;1.27;;;10.30;81.40;;;;;;5084954;28;20123;-57
2021/01/21 05:05:11;;;;;;;1.00;0.90;;;10.30;81.50;;;;;;5086423;28;20040;-56
2021/01/21 05:07:38;;;;;;;1.15;0.85;;;10.30;81.50;;;;;;5084449;28;20041;-56
2021/01/21 05:10:08;;;;;;;1.42;0.85;;;10.30;81.50;;;;;;5066632;28;20056;-56
2021/01/21 05:12:34;;;;;;;0.80;0.80;;;10.30;81.50;;;;;;5085821;28;20044;-56
2021/01/21 05:15:01;;;;;;;0.90;0.77;;;10.30;81.50;;;;;;5084344;28;20040;-53
2021/01/21 05:17:27;;;;;;;1.73;1.13;;;10.40;81.50;;;;;;5085226;28;20046;-53
2021/01/21 05:19:53;;;;;;;0.90;0.90;;;10.30;81.50;;;;;;5083542;28;20040;-55
2021/01/21 05:22:20;;;;;;;1.00;0.90;;;10.30;81.50;;;;;;5085463;28;20055;-56
2021/01/21 05:24:47;;;;;;;1.02;0.80;;;10.30;81.50;;;;;;5084812;28;20079;-56
2021/01/21 05:27:21;;;;;;;1.10;0.90;;;10.30;81.50;;;;;;5085319;28;20044;-55
2021/01/21 05:29:48;;;;;;;0.93;0.85;;;10.40;81.50;;;;;;5067379;28;20464;-54
2021/01/21 05:32:19;;;;;;;0.98;0.88;;;10.30;81.50;;;;;;5084746;28;20043;-56
2021/01/21 05:34:45;;;;;;;0.93;0.85;;;10.30;81.50;;;;;;5084148;28;20431;-55
2021/01/21 05:37:12;;;;;;;1.77;0.90;;;10.40;81.60;;;;;;5085458;28;20045;-55
2021/01/21 05:39:40;;;;;;;1.85;1.10;;;10.40;81.60;;;;;;5084887;28;20385;-56
2021/01/21 05:42:06;;;;;;;1.77;0.82;;;10.40;81.60;;;;;;5084568;28;20056;-51
2021/01/21 05:44:33;;;;;;;1.63;0.90;;;10.40;81.60;;;;;;5082993;28;20044;-57
2021/01/21 05:47:03;;;;;;;1.75;0.80;;;10.40;81.60;;;;;;5085439;28;20044;-55
2021/01/21 05:49:29;;;;;;;1.05;0.80;;;10.40;81.60;;;;;;5085108;28;20040;-54
2021/01/21 05:51:57;;;;;;;1.45;0.85;;;10.40;81.60;;;;;;5084611;28;20047;-47
2021/01/21 05:54:24;;;;;;;1.30;0.82;;;10.40;81.60;;;;;;5082431;28;20051;-50
2021/01/21 05:56:54;;;;;;;2.15;0.95;;;10.40;81.60;;;;;;5085105;28;20101;-52
2021/01/21 05:59:21;;;;;;;0.80;0.80;;;10.40;81.60;;;;;;5084854;28;20050;-54
2021/01/21 06:01:48;;;;;;;1.20;0.90;;;10.40;81.60;;;;;;5085248;28;20048;-56
2021/01/21 06:04:15;;;;;;;0.98;0.77;;;10.40;81.60;;;;;;5085539;28;20056;-55
2021/01/21 06:06:40;;;;;;;1.55;0.70;;;10.40;81.60;;;;;;5082967;28;20051;-53
2021/01/21 06:09:15;;;;;;;0.98;0.70;;;10.40;81.60;;;;;;5084456;28;20041;-56
2021/01/21 06:11:43;;;;;;;1.30;0.70;;;10.40;81.60;;;;;;5084922;28;20040;-51
2021/01/21 06:14:11;;;;;;;0.95;0.85;;;10.40;81.60;;;;;;5082853;28;20052;-51
2021/01/21 06:16:38;;;;;;;1.30;0.55;;;10.40;81.60;;;;;;5084505;28;20051;-54
2021/01/21 06:19:04;;;;;;;0.80;0.73;;;10.40;81.60;;;;;;5084515;28;20040;-53
2021/01/21 06:21:35;;;;;;;0.82;0.82;;;10.40;81.60;;;;;;5083141;28;20121;-55
2021/01/21 06:24:05;;;;;;;0.80;0.70;;;10.40;81.60;;;;;;5083742;28;20052;-52
2021/01/21 06:26:42;;;;;;;0.77;0.77;;;10.40;81.60;;;;;;5084604;28;20431;-50
2021/01/21 06:29:14;;;;;;;0.73;0.68;;;10.40;81.60;;;;;;5084198;28;20071;-52
2021/01/21 06:31:41;;;;;;;0.90;0.75;;;10.40;81.60;;;;;;5083806;28;20109;-56
2021/01/21 06:34:15;;;;;;;0.60;0.60;;;10.30;81.60;;;;;;5083900;28;20056;-55
2021/01/21 06:36:43;;;;;;;1.02;0.60;;;10.40;81.60;;;;;;5083870;28;20052;-54
2021/01/21 06:39:20;;;;;;;1.60;0.70;;;10.40;81.60;;;;;;5083512;28;20052;-47
2021/01/21 06:41:48;;;;;;;0.68;0.50;;;10.40;81.60;;;;;;5083155;28;20044;-56
2021/01/21 06:44:16;;;;;;;1.55;0.82;;;10.40;81.60;;;;;;5084112;28;20040;-50
2021/01/21 06:46:45;;;;;;;1.70;0.88;;;10.40;81.60;;;;;;5083914;28;20048;-55
2021/01/21 06:49:13;;;;;;;1.33;0.70;;;10.40;81.60;;;;;;5082107;28;20079;-51
2021/01/21 06:51:43;;;;;;;1.20;0.60;;;10.40;81.60;;;;;;5083470;28;20063;-49
2021/01/21 06:54:10;;;;;;;0.95;0.68;;;10.40;81.60;;;;;;5082172;28;20081;-50
2021/01/21 06:56:35;;;;;;;0.70;0.70;;;10.40;81.70;;;;;;5083837;28;20044;-52
2021/01/21 06:59:01;;;;;;;0.70;0.70;;;10.40;81.60;;;;;;5082155;28;20078;-49
2021/01/21 07:01:32;;;;;;;1.58;0.80;;;10.40;81.60;;;;;;5082212;28;20051;-51
2021/01/21 07:03:59;;;;;;;0.52;0.52;;;10.40;81.60;;;;;;5084113;28;20051;-48
2021/01/21 07:06:25;;;;;;;1.20;0.70;;;10.40;81.60;;;;;;5082739;28;20061;-50
2021/01/21 07:09:07;;;;;;;1.38;0.50;;;10.40;81.60;;;;;;5083048;28;20115;-48
2021/01/21 07:11:34;;;;;;;0.40;0.40;;;10.40;81.60;;;;;;5084044;28;20381;-49
2021/01/21 07:14:01;;;;;;;0.95;0.73;;;10.40;81.60;;;;;;5081971;28;20126;-49
2021/01/21 07:16:26;;;;;;;0.90;0.65;;;10.40;81.60;;;;;;5082850;28;20044;-52
2021/01/21 07:18:54;;;;;;;0.90;0.70;;;10.40;81.60;;;;;;5084019;28;20399;-51
2021/01/21 07:21:24;;;;;;;0.82;0.60;;;10.40;81.60;;;;;;5083559;28;20051;-48
2021/01/21 07:23:54;;;;;;;2.85;0.93;;;10.40;81.60;;;;;;5081641;28;20043;-50
2021/01/21 07:26:44;;;;;;;0.77;0.70;;;10.40;81.60;;;;;;5083033;28;20090;-52
2021/01/21 07:29:22;;;;;;;0.55;0.50;;;10.40;81.60;;;;;;5081538;28;20405;-50
2021/01/21 07:31:56;;;;;;;0.80;0.57;;;10.40;81.60;;;;;;5084784;28;20044;-55
2021/01/21 07:34:42;;;;;;;2.80;0.70;;;10.40;81.60;;;;;;5083828;28;20052;-50
2021/01/21 07:37:25;;;;;;;2.13;0.75;;;10.40;81.60;;;;;;5083430;28;20056;-48
2021/01/21 07:39:53;;;;;;;1.50;0.70;;;10.40;81.60;;;;;;5083176;28;20047;-52
2021/01/21 07:42:21;;;;;;;0.77;0.60;;;10.40;81.60;;;;;;5082978;28;20412;-54
2021/01/21 07:44:58;;;;;;;1.08;0.60;;;10.40;81.60;;;;;;5083082;28;20040;-54
2021/01/21 07:47:25;;;;;;;2.15;0.73;;;10.40;81.60;;;;;;5083497;28;20055;-53
2021/01/21 07:49:51;;;;;;;1.13;0.73;;;10.30;81.60;;;;;;5083208;28;20052;-49
2021/01/21 07:52:17;;;;;;;0.55;0.40;;;10.30;81.60;;;;;;5082376;28;20127;-57
2021/01/21 07:54:52;;;;;;;1.13;1.02;;;10.30;81.60;;;;;;5083250;28;20044;-52
2021/01/21 07:57:21;;;;;;;0.40;0.40;;;10.40;81.60;;;;;;5083537;28;20430;-55
2021/01/21 08:00:00;;;;;;;1.40;0.60;;;10.40;81.60;;;;;;5085556;28;20048;-52
2021/01/21 08:02:40;;;;;;;0.50;0.50;;;10.40;81.70;;;;;;5083482;28;20059;-51
2021/01/21 08:05:06;;;;;;;1.00;0.70;;;10.40;81.60;;;;;;5084927;28;20051;-56
2021/01/21 08:07:49;;;;;;;1.00;0.60;;;10.30;81.60;;;;;;5086634;28;20048;-52
2021/01/21 08:10:20;;;;;;;1.35;0.75;;;10.40;81.70;;;;;;5086384;28;20170;-50
2021/01/21 08:12:56;;;;;;;2.28;0.95;;;10.30;81.60;;;;;;5084237;28;20048;-50
2021/01/21 08:15:23;;;;;;;1.05;0.63;;;10.40;81.70;;;;;;5085395;28;20055;-50
2021/01/21 08:17:51;;;;;;;1.77;0.65;;;10.30;81.60;;;;;;5084408;28;20044;-48
2021/01/21 08:20:22;;;;;;;0.70;0.70;;;10.30;81.60;;;;;;5086394;28;20075;-55
2021/01/21 08:23:00;;;;;;;0.80;0.50;;;10.30;81.60;;;;;;5085908;28;20048;-50
2021/01/21 08:25:29;;;;;;;1.55;0.77;;;10.40;81.60;;;;;;5086072;28;20098;-53
2021/01/21 08:27:55;;;;;;;1.20;0.80;;;10.30;81.60;;;;;;5086073;28;20048;-52
2021/01/21 08:30:28;;;;;;;2.33;0.50;;;10.30;81.60;;;;;;5084978;28;20515;-51
2021/01/21 08:33:05;;;;;;;0.90;0.80;;;10.40;81.70;;;;;;5083370;28;20071;-51
2021/01/21 08:35:35;;;;;;;0.57;0.50;;;10.40;81.70;;;;;;5086097;28;20059;-52
2021/01/21 08:38:03;;;;;;;1.08;0.70;;;10.30;81.60;;;;;;5084906;28;20040;-52
2021/01/21 08:40:29;;;;;;;1.02;0.70;;;10.30;81.70;;;;;;5065894;28;20567;-50
2021/01/21 08:42:56;;;;;;;2.80;0.60;;;10.40;81.70;;;;;;5085910;28;20139;-55
2021/01/21 08:45:29;;;;;;;1.98;0.57;;;10.30;81.70;;;;;;5088062;28;20044;-53
2021/01/21 08:47:56;;;;;;;1.88;0.70;;;10.40;81.70;;;;;;5093104;28;20075;-55
2021/01/21 08:50:32;;;;;;;0.45;0.45;;;10.30;81.70;;;;;;5084997;28;20048;-49
2021/01/21 08:53:09;;;;;;;0.60;0.60;;;10.30;81.70;;;;;;5085192;28;20047;-50
2021/01/21 08:55:36;;;;;;;0.65;0.60;;;10.40;81.70;;;;;;5084887;28;20040;-49
2021/01/21 08:58:03;;;;;;;0.60;0.50;;;10.30;81.70;;;;;;5084268;28;20044;-49
2021/01/21 09:00:29;;;;;;;1.10;0.50;;;10.30;81.70;;;;;;5083440;28;20036;-54
2021/01/21 09:02:56;;;;;;;1.15;0.50;;;10.30;81.70;;;;;;5089260;28;20048;-52
2021/01/21 09:05:22;;;;;;;1.90;0.60;;;10.30;81.70;;;;;;5070444;28;20051;-53
2021/01/21 09:07:49;;;;;;;0.80;0.52;;;10.30;81.70;;;;;;5074881;28;20131;-54
2021/01/21 09:10:15;;;;;;;0.80;0.60;;;10.30;81.70;;;;;;5083146;28;20130;-55
2021/01/21 09:12:41;;;;;;;2.45;0.60;;;10.30;81.70;;;;;;5083389;28;20036;-52
2021/01/21 09:15:13;;;;;;;1.75;0.68;;;10.30;81.70;;;;;;5084591;28;20504;-52
2021/01/21 09:17:40;;;;;;;1.05;0.52;;;10.30;81.70;;;;;;5081991;28;20446;-51
2021/01/21 09:20:21;;;;;;;0.75;0.50;;;10.30;81.70;;;;;;5071915;28;20086;-55
2021/01/21 09:22:48;;;;;;;0.50;0.50;;;10.30;81.70;;;;;;5085193;28;20396;-56
2021/01/21 09:25:21;;;;;;;1.75;0.70;;;10.30;81.70;;;;;;5085339;28;20092;-54
2021/01/21 09:27:55;;;;;;;0.47;0.47;;;10.30;81.70;;;;;;5082975;28;20070;-57
2021/01/21 09:30:22;;;;;;;0.95;0.65;;;10.30;81.70;;;;;;5085411;28;20043;-54
2021/01/21 09:32:48;;;;;;;0.93;0.70;;;10.30;81.70;;;;;;5085462;28;20040;-55
2021/01/21 09:35:17;;;;;;;1.05;0.95;;;10.30;81.70;;;;;;5083505;28;20128;-56
2021/01/21 09:37:49;;;;;;;0.82;0.50;;;10.40;81.70;;;;;;5084393;28;20048;-56
2021/01/21 09:40:17;;;;;;;1.20;0.77;;;10.30;81.70;;;;;;5085214;28;20097;-54
2021/01/21 09:42:43;;;;;;;0.70;0.60;;;10.30;81.70;;;;;;5084282;28;20048;-54
2021/01/21 09:45:10;;;;;;;0.82;0.70;;;10.30;81.70;;;;;;5083439;28;20480;-55
2021/01/21 09:47:36;;;;;;;0.70;0.50;;;10.30;81.70;;;;;;5085909;28;20479;-54
2021/01/21 09:50:03;;;;;;;0.35;0.35;;;10.30;81.70;;;;;;5084167;28;20066;-57
2021/01/21 09:52:28;;;;;;;0.80;0.52;;;10.30;81.70;;;;;;5083347;28;20499;-57
2021/01/21 09:54:54;;;;;;;1.40;0.50;;;10.30;81.70;;;;;;5085337;28;20068;-55
2021/01/21 09:57:20;;;;;;;0.63;0.55;;;10.30;81.70;;;;;;5079843;28;20499;-53
2021/01/21 09:59:46;;;;;;;1.52;1.42;;;10.30;81.70;;;;;;5090449;28;20048;-53
2021/01/21 10:02:12;;;;;;;2.47;0.90;;;10.30;81.70;;;;;;5079093;28;20101;-52
2021/01/21 10:04:40;;;;;;;0.95;0.60;;;10.30;81.70;;;;;;5083920;28;20047;-56
2021/01/21 10:07:07;;;;;;;1.25;0.55;;;10.30;81.70;;;;;;5083775;28;20040;-54
2021/01/21 10:09:33;;;;;;;0.70;0.57;;;10.30;81.60;;;;;;5082368;28;20093;-53
2021/01/21 10:11:59;;;;;;;0.75;0.60;;;10.30;81.70;;;;;;5082111;28;21034;-52
2021/01/21 10:14:25;;;;;;;0.93;0.63;;;10.30;81.70;;;;;;5092884;28;20040;-56
2021/01/21 10:16:51;;;;;;;0.98;0.60;;;10.40;81.70;;;;;;5093292;28;20078;-54
2021/01/21 10:19:17;;;;;;;1.60;0.57;;;10.30;81.70;;;;;;5087130;28;20048;-56
2021/01/21 10:21:43;;;;;;;0.85;0.60;;;10.40;81.70;;;;;;5082579;28;20041;-57
2021/01/21 10:24:09;;;;;;;0.93;0.55;;;10.30;81.60;;;;;;5082918;28;20419;-56
2021/01/21 10:26:34;;;;;;;0.73;0.52;;;10.40;81.70;;;;;;5083686;28;20094;-52
2021/01/21 10:29:00;;;;;;;0.50;0.50;;;10.30;81.60;;;;;;5081536;28;20051;-56
2021/01/21 10:31:26;;;;;;;1.20;0.80;;;10.40;81.70;;;;;;5083595;28;20040;-57
2021/01/21 10:33:52;;;;;;;0.50;0.40;;;10.40;81.70;;;;;;5083939;28;20044;-56
2021/01/21 10:36:17;;;;;;;1.40;0.80;;;10.30;81.60;;;;;;5082268;28;20044;-57
2021/01/21 10:38:43;;;;;;;1.00;0.90;;;10.40;81.70;;;;;;5084229;28;20123;-57
2021/01/21 10:41:09;;;;;;;1.05;0.52;;;10.40;81.70;;;;;;5078942;28;20612;-57
2021/01/21 10:43:35;;;;;;;1.45;0.65;;;10.30;81.70;;;;;;5073396;28;20041;-57
2021/01/21 10:46:01;;;;;;;1.23;0.60;;;10.40;82.30;;;;;;5073446;28;20377;-57
2021/01/21 10:48:27;;;;;;;1.48;0.65;;;10.40;81.70;;;;;;5084529;28;20040;-58
2021/01/21 10:50:53;;;;;;;0.73;0.57;;;10.40;81.70;;;;;;5093749;28;20048;-57
2021/01/21 10:53:19;;;;;;;1.55;0.60;;;10.40;81.70;;;;;;5093663;28;20054;-59
2021/01/21 10:55:45;;;;;;;1.13;0.70;;;10.40;81.70;;;;;;5093627;28;20052;-57
2021/01/21 10:58:13;;;;;;;0.63;0.60;;;10.40;81.70;;;;;;5093381;28;20383;-54
2021/01/21 11:00:40;;;;;;;0.85;0.55;;;10.40;81.70;;;;;;5093795;28;20051;-56
2021/01/21 11:03:06;;;;;;;0.90;0.50;;;10.40;81.70;;;;;;5093699;28;20121;-59
2021/01/21 11:05:31;;;;;;;0.63;0.40;;;10.40;81.70;;;;;;5093647;28;20483;-60
2021/01/21 11:07:57;;;;;;;0.50;0.50;;;10.40;81.60;;;;;;5093495;28;20442;-61
2021/01/21 11:10:23;;;;;;;0.88;0.50;;;10.40;81.70;;;;;;5093386;28;20491;-48
2021/01/21 11:12:49;;;;;;;0.98;0.60;;;10.40;81.60;;;;;;5093264;28;20074;-52
2021/01/21 11:15:16;;;;;;;1.08;0.70;;;10.40;81.70;;;;;;5093305;28;20052;-54
2021/01/21 11:17:46;;;;;;;0.77;0.50;;;10.40;81.70;;;;;;5093290;28;20055;-56
2021/01/21 11:20:13;;;;;;;1.38;1.25;;;10.50;81.70;;;;;;5093580;28;20127;-56
2021/01/21 11:22:40;;;;;;;1.00;0.70;;;10.40;81.70;;;;;;5093193;28;20446;-60
2021/01/21 11:25:07;;;;;;;1.02;0.60;;;10.40;81.70;;;;;;5093440;28;20050;-58
2021/01/21 11:27:34;;;;;;;0.43;0.43;;;10.40;81.60;;;;;;5093090;28;20494;-59
2021/01/21 11:30:01;;;;;;;0.88;0.75;;;10.40;81.70;;;;;;5093137;28;20044;-60
2021/01/21 11:32:26;;;;;;;0.88;0.70;;;10.40;81.70;;;;;;5093167;28;20144;-58
2021/01/21 11:34:52;;;;;;;0.50;0.50;;;10.40;81.60;;;;;;5093140;28;20495;-61
2021/01/21 11:37:18;;;;;;;2.13;0.80;;;10.40;81.70;;;;;;5092419;28;20044;-61
2021/01/21 11:39:43;;;;;;;1.20;0.80;;;10.40;81.60;;;;;;5093048;28;20052;-56
2021/01/21 11:42:09;;;;;;;0.90;0.70;;;10.40;81.60;;;;;;5074206;28;20048;-59
2021/01/21 11:44:35;;;;;;;2.05;0.70;;;10.40;81.60;;;;;;5092816;28;20100;-55
2021/01/21 11:47:00;;;;;;;1.08;0.70;;;10.40;81.60;;;;;;5092620;28;20062;-56
2021/01/21 11:49:26;;;;;;;1.90;0.50;;;10.40;81.60;;;;;;5093009;28;20080;-53
2021/01/21 11:51:52;;;;;;;1.98;0.73;;;10.40;81.60;;;;;;5090661;28;20492;-57
2021/01/21 11:54:17;;;;;;;0.70;0.40;;;10.40;81.60;;;;;;5092925;28;20051;-59
2021/01/21 11:56:43;;;;;;;1.55;0.70;;;10.40;81.60;;;;;;5092928;28;20052;-58
2021/01/21 11:59:09;;;;;;;1.60;0.60;;;10.40;81.60;;;;;;5092954;28;20117;-59
2021/01/21 12:01:34;;;;;;;0.60;0.45;;;10.50;81.70;;;;;;5092686;28;20484;-58
2021/01/21 12:04:00;;;;;;;0.75;0.47;;;10.40;81.60;;;;;;5093068;28;20055;-54
2021/01/21 12:06:26;;;;;;;1.23;0.40;;;10.40;81.60;;;;;;5092986;28;20074;-55
2021/01/21 12:08:51;;;;;;;2.10;0.60;;;10.40;81.60;;;;;;5092705;28;20555;-58
2021/01/21 12:11:17;;;;;;;0.45;0.43;;;10.40;81.60;;;;;;5092813;28;20480;-58
2021/01/21 12:13:43;;;;;;;0.85;0.63;;;10.40;81.50;;;;;;5092691;28;20450;-58
2021/01/21 12:16:09;;;;;;;2.22;0.68;;;10.40;81.60;;;;;;5092716;28;20082;-53
2021/01/21 12:18:35;;;;;;;1.27;0.70;;;10.40;81.60;;;;;;5092911;28;20059;-57
2021/01/21 12:21:01;;;;;;;1.05;0.60;;;10.40;81.50;;;;;;5092714;28;20051;-59
2021/01/21 12:23:26;;;;;;;0.68;0.50;;;10.40;81.50;;;;;;5092656;28;20047;-57
2021/01/21 12:25:53;;;;;;;1.05;0.90;;;10.40;81.50;;;;;;5092678;28;20048;-55
2021/01/21 12:28:19;;;;;;;1.40;0.60;;;10.50;81.60;;;;;;5092562;28;20052;-58
2021/01/21 12:30:45;;;;;;;0.60;0.60;;;10.50;81.60;;;;;;5092454;28;20054;-54
2021/01/21 12:33:10;;;;;;;0.93;0.57;;;10.50;81.60;;;;;;5092419;28;20048;-56
2021/01/21 12:35:36;;;;;;;0.90;0.80;;;10.50;81.60;;;;;;5092755;28;20411;-59
2021/01/21 12:38:02;;;;;;;0.85;0.65;;;10.50;81.60;;;;;;5092752;28;20055;-58
2021/01/21 12:40:27;;;;;;;1.15;0.60;;;10.50;81.60;;;;;;5089704;28;20041;-54
2021/01/21 12:42:53;;;;;;;1.58;0.68;;;10.50;81.60;;;;;;5085553;28;20476;-54
2021/01/21 12:45:19;;;;;;;0.98;0.60;;;10.50;81.60;;;;;;5081179;28;20447;-52
2021/01/21 12:47:44;;;;;;;0.88;0.52;;;10.50;81.60;;;;;;5081895;28;20065;-52
2021/01/21 12:50:11;;;;;;;0.73;0.70;;;10.50;81.60;;;;;;5086384;28;20056;-46
2021/01/21 12:52:36;;;;;;;0.93;0.60;;;10.50;81.70;;;;;;5085643;28;20078;-52